sensor_id;sensor_type;location;lat;lon;timestamp;P1;durP1;ratioP1;P2;durP2;ratioP2
77522;SDS011;66637;-29.628;-49.938;2023-05-03T00:01:43;78.20;;;10.45;;
77522;SDS011;66637;-29.628;-49.938;2023-05-03T00:04:17;63.78;;;8.85;;
77522;SDS011;66637;-29.628;-49.938;2023-05-03T00:06:47;63.80;;;8.13;;
77522;SDS011;66637;-29.628;-49.938;2023-05-03T00:09:18;66.55;;;8.85;;
77522;SDS011;66637;-29.628;-49.938;2023-05-03T00:11:49;109.82;;;13.65;;
77522;SDS011;66637;-29.628;-49.938;2023-05-03T00:14:20;76.57;;;10.63;;
77522;SDS011;66637;-29.628;-49.938;2023-05-03T00:16:51;78.30;;;9.85;;
77522;SDS011;66637;-29.628;-49.938;2023-05-03T00:19:23;115.97;;;12.77;;
77522;SDS011;66637;-29.628;-49.938;2023-05-03T00:22:02;29.10;;;4.55;;
77522;SDS011;66637;-29.628;-49.938;2023-05-03T00:24:33;16.55;;;3.30;;
77522;SDS011;66637;-29.628;-49.938;2023-05-03T00:27:04;13.98;;;1.50;;
77522;SDS011;66637;-29.628;-49.938;2023-05-03T00:29:35;13.77;;;1.88;;
77522;SDS011;66637;-29.628;-49.938;2023-05-03T00:32:05;18.05;;;1.52;;
77522;SDS011;66637;-29.628;-49.938;2023-05-03T00:34:40;74.45;;;10.15;;
77522;SDS011;66637;-29.628;-49.938;2023-05-03T00:37:11;88.50;;;10.57;;
77522;SDS011;66637;-29.628;-49.938;2023-05-03T00:39:42;52.15;;;7.43;;
77522;SDS011;66637;-29.628;-49.938;2023-05-03T00:42:12;60.67;;;9.27;;
77522;SDS011;66637;-29.628;-49.938;2023-05-03T00:44:44;45.45;;;7.40;;
77522;SDS011;66637;-29.628;-49.938;2023-05-03T00:47:22;62.58;;;7.95;;
77522;SDS011;66637;-29.628;-49.938;2023-05-03T00:50:16;53.22;;;7.88;;
77522;SDS011;66637;-29.628;-49.938;2023-05-03T00:52:49;60.85;;;7.20;;
77522;SDS011;66637;-29.628;-49.938;2023-05-03T00:55:22;65.07;;;8.52;;
77522;SDS011;66637;-29.628;-49.938;2023-05-03T00:57:56;62.28;;;7.55;;
77522;SDS011;66637;-29.628;-49.938;2023-05-03T01:00:28;52.55;;;7.97;;
77522;SDS011;66637;-29.628;-49.938;2023-05-03T01:02:58;33.75;;;5.38;;
77522;SDS011;66637;-29.628;-49.938;2023-05-03T01:05:32;48.78;;;5.68;;
77522;SDS011;66637;-29.628;-49.938;2023-05-03T01:08:37;56.88;;;8.10;;
77522;SDS011;66637;-29.628;-49.938;2023-05-03T01:11:22;57.85;;;7.78;;
77522;SDS011;66637;-29.628;-49.938;2023-05-03T01:16:34;69.45;;;8.23;;
77522;SDS011;66637;-29.628;-49.938;2023-05-03T01:19:15;16.45;;;3.55;;
77522;SDS011;66637;-29.628;-49.938;2023-05-03T01:24:46;24.83;;;3.90;;
77522;SDS011;66637;-29.628;-49.938;2023-05-03T01:27:25;15.85;;;3.58;;
77522;SDS011;66637;-29.628;-49.938;2023-05-03T01:29:56;22.25;;;3.25;;
77522;SDS011;66637;-29.628;-49.938;2023-05-03T01:32:35;39.58;;;4.55;;
77522;SDS011;66637;-29.628;-49.938;2023-05-03T01:36:03;34.63;;;4.30;;
77522;SDS011;66637;-29.628;-49.938;2023-05-03T01:39:05;24.20;;;3.28;;
77522;SDS011;66637;-29.628;-49.938;2023-05-03T01:41:39;14.60;;;2.85;;
77522;SDS011;66637;-29.628;-49.938;2023-05-03T01:44:12;34.20;;;4.68;;
77522;SDS011;66637;-29.628;-49.938;2023-05-03T01:46:44;37.92;;;5.82;;
77522;SDS011;66637;-29.628;-49.938;2023-05-03T01:49:15;30.65;;;3.00;;
77522;SDS011;66637;-29.628;-49.938;2023-05-03T01:51:45;16.58;;;3.22;;
77522;SDS011;66637;-29.628;-49.938;2023-05-03T01:54:17;36.83;;;5.18;;
77522;SDS011;66637;-29.628;-49.938;2023-05-03T01:56:47;16.27;;;3.38;;
77522;SDS011;66637;-29.628;-49.938;2023-05-03T01:59:19;22.17;;;3.35;;
77522;SDS011;66637;-29.628;-49.938;2023-05-03T02:01:51;43.15;;;6.53;;
77522;SDS011;66637;-29.628;-49.938;2023-05-03T02:04:22;29.10;;;3.78;;
77522;SDS011;66637;-29.628;-49.938;2023-05-03T02:06:52;29.85;;;4.93;;
77522;SDS011;66637;-29.628;-49.938;2023-05-03T02:09:25;30.40;;;4.47;;
77522;SDS011;66637;-29.628;-49.938;2023-05-03T02:11:56;29.95;;;4.65;;
77522;SDS011;66637;-29.628;-49.938;2023-05-03T02:14:28;18.38;;;3.33;;
77522;SDS011;66637;-29.628;-49.938;2023-05-03T02:16:59;25.88;;;4.55;;
77522;SDS011;66637;-29.628;-49.938;2023-05-03T02:19:33;25.75;;;3.85;;
77522;SDS011;66637;-29.628;-49.938;2023-05-03T02:22:06;15.70;;;2.85;;
77522;SDS011;66637;-29.628;-49.938;2023-05-03T02:24:36;20.80;;;3.38;;
77522;SDS011;66637;-29.628;-49.938;2023-05-03T02:27:08;10.02;;;2.63;;
77522;SDS011;66637;-29.628;-49.938;2023-05-03T02:29:38;18.33;;;3.03;;
77522;SDS011;66637;-29.628;-49.938;2023-05-03T02:32:09;18.30;;;2.88;;
77522;SDS011;66637;-29.628;-49.938;2023-05-03T02:34:42;41.95;;;4.90;;
77522;SDS011;66637;-29.628;-49.938;2023-05-03T02:37:15;23.08;;;4.38;;
77522;SDS011;66637;-29.628;-49.938;2023-05-03T02:39:46;19.20;;;3.80;;
77522;SDS011;66637;-29.628;-49.938;2023-05-03T02:42:17;16.75;;;4.03;;
77522;SDS011;66637;-29.628;-49.938;2023-05-03T02:44:48;26.08;;;4.18;;
77522;SDS011;66637;-29.628;-49.938;2023-05-03T02:47:20;24.55;;;4.22;;
77522;SDS011;66637;-29.628;-49.938;2023-05-03T02:49:52;15.57;;;3.42;;
77522;SDS011;66637;-29.628;-49.938;2023-05-03T02:52:24;12.63;;;3.13;;
77522;SDS011;66637;-29.628;-49.938;2023-05-03T02:54:55;16.48;;;3.95;;
77522;SDS011;66637;-29.628;-49.938;2023-05-03T02:57:27;15.63;;;3.22;;
77522;SDS011;66637;-29.628;-49.938;2023-05-03T02:59:59;15.02;;;2.40;;
77522;SDS011;66637;-29.628;-49.938;2023-05-03T03:02:29;24.55;;;3.28;;
77522;SDS011;66637;-29.628;-49.938;2023-05-03T03:05:01;28.40;;;3.80;;
77522;SDS011;66637;-29.628;-49.938;2023-05-03T03:07:32;32.60;;;4.07;;
77522;SDS011;66637;-29.628;-49.938;2023-05-03T03:10:03;43.53;;;6.25;;
77522;SDS011;66637;-29.628;-49.938;2023-05-03T03:12:34;21.92;;;4.05;;
77522;SDS011;66637;-29.628;-49.938;2023-05-03T03:15:08;19.90;;;3.65;;
77522;SDS011;66637;-29.628;-49.938;2023-05-03T03:17:39;18.88;;;4.18;;
77522;SDS011;66637;-29.628;-49.938;2023-05-03T03:20:10;17.90;;;3.20;;
77522;SDS011;66637;-29.628;-49.938;2023-05-03T03:22:46;17.00;;;3.20;;
77522;SDS011;66637;-29.628;-49.938;2023-05-03T03:25:18;19.60;;;3.83;;
77522;SDS011;66637;-29.628;-49.938;2023-05-03T03:27:55;23.13;;;3.92;;
77522;SDS011;66637;-29.628;-49.938;2023-05-03T03:30:25;21.33;;;3.25;;
77522;SDS011;66637;-29.628;-49.938;2023-05-03T03:33:15;17.42;;;3.00;;
77522;SDS011;66637;-29.628;-49.938;2023-05-03T03:35:46;13.20;;;3.15;;
77522;SDS011;66637;-29.628;-49.938;2023-05-03T03:38:18;20.10;;;3.60;;
77522;SDS011;66637;-29.628;-49.938;2023-05-03T03:40:55;34.65;;;4.13;;
77522;SDS011;66637;-29.628;-49.938;2023-05-03T03:43:27;15.48;;;3.33;;
77522;SDS011;66637;-29.628;-49.938;2023-05-03T03:45:59;19.83;;;3.35;;
77522;SDS011;66637;-29.628;-49.938;2023-05-03T03:48:29;21.05;;;4.00;;
77522;SDS011;66637;-29.628;-49.938;2023-05-03T03:51:00;21.25;;;2.60;;
77522;SDS011;66637;-29.628;-49.938;2023-05-03T03:53:37;15.00;;;2.50;;
77522;SDS011;66637;-29.628;-49.938;2023-05-03T03:56:09;17.98;;;2.42;;
77522;SDS011;66637;-29.628;-49.938;2023-05-03T03:58:41;18.60;;;3.42;;
77522;SDS011;66637;-29.628;-49.938;2023-05-03T04:01:12;9.82;;;2.70;;
77522;SDS011;66637;-29.628;-49.938;2023-05-03T04:03:46;14.00;;;3.42;;
77522;SDS011;66637;-29.628;-49.938;2023-05-03T04:06:18;20.05;;;2.53;;
77522;SDS011;66637;-29.628;-49.938;2023-05-03T04:08:49;16.20;;;3.05;;
77522;SDS011;66637;-29.628;-49.938;2023-05-03T04:11:20;14.50;;;2.85;;
77522;SDS011;66637;-29.628;-49.938;2023-05-03T04:13:57;25.40;;;4.20;;
77522;SDS011;66637;-29.628;-49.938;2023-05-03T04:16:29;12.63;;;3.60;;
77522;SDS011;66637;-29.628;-49.938;2023-05-03T04:19:02;18.58;;;2.90;;
77522;SDS011;66637;-29.628;-49.938;2023-05-03T04:21:35;11.15;;;3.17;;
77522;SDS011;66637;-29.628;-49.938;2023-05-03T04:24:06;19.40;;;3.83;;
77522;SDS011;66637;-29.628;-49.938;2023-05-03T04:26:38;20.83;;;3.65;;
77522;SDS011;66637;-29.628;-49.938;2023-05-03T04:29:16;18.42;;;2.88;;
77522;SDS011;66637;-29.628;-49.938;2023-05-03T04:31:49;28.23;;;3.80;;
77522;SDS011;66637;-29.628;-49.938;2023-05-03T04:34:20;16.75;;;2.65;;
77522;SDS011;66637;-29.628;-49.938;2023-05-03T04:36:53;12.55;;;2.42;;
77522;SDS011;66637;-29.628;-49.938;2023-05-03T04:39:24;13.82;;;3.50;;
77522;SDS011;66637;-29.628;-49.938;2023-05-03T04:41:56;24.25;;;4.40;;
77522;SDS011;66637;-29.628;-49.938;2023-05-03T04:44:28;20.98;;;4.75;;
77522;SDS011;66637;-29.628;-49.938;2023-05-03T04:46:59;24.48;;;3.55;;
77522;SDS011;66637;-29.628;-49.938;2023-05-03T04:49:31;15.02;;;3.30;;
77522;SDS011;66637;-29.628;-49.938;2023-05-03T04:52:03;23.38;;;3.80;;
77522;SDS011;66637;-29.628;-49.938;2023-05-03T04:54:36;29.33;;;4.97;;
77522;SDS011;66637;-29.628;-49.938;2023-05-03T04:57:07;20.83;;;3.08;;
77522;SDS011;66637;-29.628;-49.938;2023-05-03T04:59:39;22.10;;;3.33;;
77522;SDS011;66637;-29.628;-49.938;2023-05-03T05:02:10;16.52;;;3.22;;
77522;SDS011;66637;-29.628;-49.938;2023-05-03T05:04:41;17.20;;;3.00;;
77522;SDS011;66637;-29.628;-49.938;2023-05-03T05:07:12;13.63;;;3.63;;
77522;SDS011;66637;-29.628;-49.938;2023-05-03T05:09:44;12.77;;;2.67;;
77522;SDS011;66637;-29.628;-49.938;2023-05-03T05:12:15;17.48;;;3.38;;
77522;SDS011;66637;-29.628;-49.938;2023-05-03T05:14:47;23.95;;;3.22;;
77522;SDS011;66637;-29.628;-49.938;2023-05-03T05:17:17;34.15;;;6.20;;
77522;SDS011;66637;-29.628;-49.938;2023-05-03T05:19:48;21.40;;;5.45;;
77522;SDS011;66637;-29.628;-49.938;2023-05-03T05:22:19;26.33;;;4.05;;
77522;SDS011;66637;-29.628;-49.938;2023-05-03T05:24:58;42.05;;;5.75;;
77522;SDS011;66637;-29.628;-49.938;2023-05-03T05:27:30;35.17;;;4.80;;
77522;SDS011;66637;-29.628;-49.938;2023-05-03T05:30:03;28.40;;;4.95;;
77522;SDS011;66637;-29.628;-49.938;2023-05-03T05:32:38;15.85;;;3.63;;
77522;SDS011;66637;-29.628;-49.938;2023-05-03T05:35:12;35.03;;;5.43;;
77522;SDS011;66637;-29.628;-49.938;2023-05-03T05:37:46;25.55;;;4.57;;
77522;SDS011;66637;-29.628;-49.938;2023-05-03T05:40:17;33.80;;;5.38;;
77522;SDS011;66637;-29.628;-49.938;2023-05-03T05:42:54;30.95;;;4.35;;
77522;SDS011;66637;-29.628;-49.938;2023-05-03T05:45:25;22.83;;;5.50;;
77522;SDS011;66637;-29.628;-49.938;2023-05-03T05:47:57;20.92;;;4.05;;
77522;SDS011;66637;-29.628;-49.938;2023-05-03T05:50:29;26.95;;;4.18;;
77522;SDS011;66637;-29.628;-49.938;2023-05-03T05:53:05;17.17;;;3.88;;
77522;SDS011;66637;-29.628;-49.938;2023-05-03T05:55:43;14.55;;;3.65;;
77522;SDS011;66637;-29.628;-49.938;2023-05-03T05:58:15;30.75;;;4.43;;
77522;SDS011;66637;-29.628;-49.938;2023-05-03T06:00:50;27.48;;;6.13;;
77522;SDS011;66637;-29.628;-49.938;2023-05-03T06:03:22;18.50;;;4.38;;
77522;SDS011;66637;-29.628;-49.938;2023-05-03T06:05:52;30.73;;;4.78;;
77522;SDS011;66637;-29.628;-49.938;2023-05-03T06:08:23;24.40;;;3.05;;
77522;SDS011;66637;-29.628;-49.938;2023-05-03T06:10:53;28.38;;;5.72;;
77522;SDS011;66637;-29.628;-49.938;2023-05-03T06:13:26;22.27;;;4.35;;
77522;SDS011;66637;-29.628;-49.938;2023-05-03T06:15:57;29.50;;;4.78;;
77522;SDS011;66637;-29.628;-49.938;2023-05-03T06:18:28;30.95;;;5.95;;
77522;SDS011;66637;-29.628;-49.938;2023-05-03T06:20:59;25.52;;;5.47;;
77522;SDS011;66637;-29.628;-49.938;2023-05-03T06:23:30;23.67;;;3.72;;
77522;SDS011;66637;-29.628;-49.938;2023-05-03T06:26:03;19.40;;;3.50;;
77522;SDS011;66637;-29.628;-49.938;2023-05-03T06:28:34;22.92;;;4.88;;
77522;SDS011;66637;-29.628;-49.938;2023-05-03T06:31:05;27.00;;;4.65;;
77522;SDS011;66637;-29.628;-49.938;2023-05-03T06:33:36;19.50;;;4.50;;
77522;SDS011;66637;-29.628;-49.938;2023-05-03T06:36:09;15.02;;;3.17;;
77522;SDS011;66637;-29.628;-49.938;2023-05-03T06:38:41;34.35;;;4.60;;
77522;SDS011;66637;-29.628;-49.938;2023-05-03T06:41:12;30.95;;;4.45;;
77522;SDS011;66637;-29.628;-49.938;2023-05-03T06:43:42;26.85;;;4.07;;
77522;SDS011;66637;-29.628;-49.938;2023-05-03T06:46:14;26.13;;;4.30;;
77522;SDS011;66637;-29.628;-49.938;2023-05-03T06:48:47;28.02;;;4.90;;
77522;SDS011;66637;-29.628;-49.938;2023-05-03T06:51:19;16.05;;;4.20;;
77522;SDS011;66637;-29.628;-49.938;2023-05-03T06:53:56;15.45;;;3.65;;
77522;SDS011;66637;-29.628;-49.938;2023-05-03T06:56:35;33.33;;;5.25;;
77522;SDS011;66637;-29.628;-49.938;2023-05-03T06:59:05;15.82;;;3.83;;
77522;SDS011;66637;-29.628;-49.938;2023-05-03T07:01:39;15.68;;;4.03;;
77522;SDS011;66637;-29.628;-49.938;2023-05-03T07:04:09;51.17;;;6.47;;
77522;SDS011;66637;-29.628;-49.938;2023-05-03T07:06:41;22.80;;;4.10;;
77522;SDS011;66637;-29.628;-49.938;2023-05-03T07:14:39;29.23;;;6.60;;
77522;SDS011;66637;-29.628;-49.938;2023-05-03T07:17:09;27.80;;;5.65;;
77522;SDS011;66637;-29.628;-49.938;2023-05-03T07:19:39;24.55;;;5.47;;
77522;SDS011;66637;-29.628;-49.938;2023-05-03T07:22:10;28.10;;;5.60;;
77522;SDS011;66637;-29.628;-49.938;2023-05-03T07:24:42;21.02;;;3.90;;
77522;SDS011;66637;-29.628;-49.938;2023-05-03T07:27:12;26.45;;;3.45;;
77522;SDS011;66637;-29.628;-49.938;2023-05-03T07:29:44;38.53;;;5.40;;
77522;SDS011;66637;-29.628;-49.938;2023-05-03T07:32:15;17.63;;;3.13;;
77522;SDS011;66637;-29.628;-49.938;2023-05-03T07:34:46;41.30;;;6.10;;
77522;SDS011;66637;-29.628;-49.938;2023-05-03T07:37:17;23.70;;;4.00;;
77522;SDS011;66637;-29.628;-49.938;2023-05-03T07:39:48;17.33;;;2.75;;
77522;SDS011;66637;-29.628;-49.938;2023-05-03T07:42:20;27.92;;;4.15;;
77522;SDS011;66637;-29.628;-49.938;2023-05-03T07:44:52;28.05;;;3.45;;
77522;SDS011;66637;-29.628;-49.938;2023-05-03T07:47:23;25.98;;;4.05;;
77522;SDS011;66637;-29.628;-49.938;2023-05-03T07:49:55;19.80;;;2.83;;
77522;SDS011;66637;-29.628;-49.938;2023-05-03T07:52:26;14.18;;;3.22;;
77522;SDS011;66637;-29.628;-49.938;2023-05-03T07:54:56;29.65;;;3.97;;
77522;SDS011;66637;-29.628;-49.938;2023-05-03T07:57:27;41.97;;;5.55;;
77522;SDS011;66637;-29.628;-49.938;2023-05-03T07:59:58;23.25;;;4.20;;
77522;SDS011;66637;-29.628;-49.938;2023-05-03T08:02:38;17.17;;;3.85;;
77522;SDS011;66637;-29.628;-49.938;2023-05-03T08:05:10;17.15;;;4.93;;
77522;SDS011;66637;-29.628;-49.938;2023-05-03T08:07:42;29.33;;;4.90;;
77522;SDS011;66637;-29.628;-49.938;2023-05-03T08:10:13;16.05;;;2.42;;
77522;SDS011;66637;-29.628;-49.938;2023-05-03T08:12:45;22.13;;;3.38;;
77522;SDS011;66637;-29.628;-49.938;2023-05-03T08:15:16;25.20;;;3.33;;
77522;SDS011;66637;-29.628;-49.938;2023-05-03T08:17:46;22.13;;;3.20;;
77522;SDS011;66637;-29.628;-49.938;2023-05-03T08:20:17;20.77;;;3.50;;
77522;SDS011;66637;-29.628;-49.938;2023-05-03T08:22:48;21.92;;;4.18;;
77522;SDS011;66637;-29.628;-49.938;2023-05-03T08:25:19;19.27;;;3.30;;
77522;SDS011;66637;-29.628;-49.938;2023-05-03T08:27:52;27.80;;;4.47;;
77522;SDS011;66637;-29.628;-49.938;2023-05-03T08:30:25;22.95;;;3.70;;
77522;SDS011;66637;-29.628;-49.938;2023-05-03T08:32:55;25.45;;;4.28;;
77522;SDS011;66637;-29.628;-49.938;2023-05-03T08:35:26;35.72;;;5.35;;
77522;SDS011;66637;-29.628;-49.938;2023-05-03T08:37:57;27.45;;;5.68;;
77522;SDS011;66637;-29.628;-49.938;2023-05-03T08:40:27;19.90;;;3.63;;
77522;SDS011;66637;-29.628;-49.938;2023-05-03T08:42:59;27.30;;;4.57;;
77522;SDS011;66637;-29.628;-49.938;2023-05-03T08:45:38;36.55;;;4.93;;
77522;SDS011;66637;-29.628;-49.938;2023-05-03T08:48:08;25.10;;;3.75;;
77522;SDS011;66637;-29.628;-49.938;2023-05-03T08:50:39;24.77;;;4.22;;
77522;SDS011;66637;-29.628;-49.938;2023-05-03T08:53:11;37.65;;;5.63;;
77522;SDS011;66637;-29.628;-49.938;2023-05-03T08:55:41;33.17;;;6.38;;
77522;SDS011;66637;-29.628;-49.938;2023-05-03T08:58:13;28.13;;;5.70;;
77522;SDS011;66637;-29.628;-49.938;2023-05-03T09:00:43;37.67;;;5.00;;
77522;SDS011;66637;-29.628;-49.938;2023-05-03T09:03:14;30.75;;;3.25;;
77522;SDS011;66637;-29.628;-49.938;2023-05-03T09:05:46;29.75;;;4.93;;
77522;SDS011;66637;-29.628;-49.938;2023-05-03T09:08:17;38.13;;;5.82;;
77522;SDS011;66637;-29.628;-49.938;2023-05-03T09:10:51;13.98;;;3.70;;
77522;SDS011;66637;-29.628;-49.938;2023-05-03T09:13:29;17.35;;;3.38;;
77522;SDS011;66637;-29.628;-49.938;2023-05-03T09:16:00;25.17;;;4.10;;
77522;SDS011;66637;-29.628;-49.938;2023-05-03T09:18:34;27.13;;;3.78;;
77522;SDS011;66637;-29.628;-49.938;2023-05-03T09:21:05;16.35;;;3.50;;
77522;SDS011;66637;-29.628;-49.938;2023-05-03T09:23:36;23.42;;;3.50;;
77522;SDS011;66637;-29.628;-49.938;2023-05-03T09:26:08;32.88;;;3.78;;
77522;SDS011;66637;-29.628;-49.938;2023-05-03T09:28:40;48.67;;;6.05;;
77522;SDS011;66637;-29.628;-49.938;2023-05-03T09:31:13;29.48;;;4.95;;
77522;SDS011;66637;-29.628;-49.938;2023-05-03T09:33:43;19.45;;;3.67;;
77522;SDS011;66637;-29.628;-49.938;2023-05-03T09:36:14;29.88;;;4.07;;
77522;SDS011;66637;-29.628;-49.938;2023-05-03T09:38:45;41.22;;;5.00;;
77522;SDS011;66637;-29.628;-49.938;2023-05-03T09:41:24;39.40;;;6.30;;
77522;SDS011;66637;-29.628;-49.938;2023-05-03T09:44:01;31.48;;;5.18;;
77522;SDS011;66637;-29.628;-49.938;2023-05-03T09:46:32;17.55;;;3.20;;
77522;SDS011;66637;-29.628;-49.938;2023-05-03T09:49:03;18.48;;;4.22;;
77522;SDS011;66637;-29.628;-49.938;2023-05-03T09:51:35;31.15;;;5.43;;
77522;SDS011;66637;-29.628;-49.938;2023-05-03T09:54:07;18.85;;;3.83;;
77522;SDS011;66637;-29.628;-49.938;2023-05-03T09:56:39;47.33;;;6.30;;
77522;SDS011;66637;-29.628;-49.938;2023-05-03T10:01:46;29.40;;;4.57;;
77522;SDS011;66637;-29.628;-49.938;2023-05-03T10:04:18;33.95;;;5.53;;
77522;SDS011;66637;-29.628;-49.938;2023-05-03T10:06:50;15.77;;;3.00;;
77522;SDS011;66637;-29.628;-49.938;2023-05-03T10:09:34;29.02;;;3.78;;
77522;SDS011;66637;-29.628;-49.938;2023-05-03T10:12:08;17.95;;;3.85;;
77522;SDS011;66637;-29.628;-49.938;2023-05-03T10:14:41;21.90;;;5.38;;
77522;SDS011;66637;-29.628;-49.938;2023-05-03T10:20:20;22.30;;;5.00;;
77522;SDS011;66637;-29.628;-49.938;2023-05-03T10:25:35;18.80;;;4.35;;
77522;SDS011;66637;-29.628;-49.938;2023-05-03T10:28:06;20.33;;;5.05;;
77522;SDS011;66637;-29.628;-49.938;2023-05-03T10:30:39;26.20;;;4.53;;
77522;SDS011;66637;-29.628;-49.938;2023-05-03T10:35:49;15.30;;;3.35;;
77522;SDS011;66637;-29.628;-49.938;2023-05-03T10:38:24;16.48;;;4.63;;
77522;SDS011;66637;-29.628;-49.938;2023-05-03T10:40:58;22.58;;;4.00;;
77522;SDS011;66637;-29.628;-49.938;2023-05-03T10:46:07;13.63;;;2.85;;
77522;SDS011;66637;-29.628;-49.938;2023-05-03T10:49:17;19.15;;;4.55;;
77522;SDS011;66637;-29.628;-49.938;2023-05-03T10:51:52;14.25;;;3.72;;
77522;SDS011;66637;-29.628;-49.938;2023-05-03T10:54:26;19.45;;;3.72;;
77522;SDS011;66637;-29.628;-49.938;2023-05-03T10:56:57;11.45;;;3.45;;
77522;SDS011;66637;-29.628;-49.938;2023-05-03T10:59:27;26.25;;;5.32;;
77522;SDS011;66637;-29.628;-49.938;2023-05-03T11:02:16;24.02;;;4.82;;
77522;SDS011;66637;-29.628;-49.938;2023-05-03T11:04:51;21.77;;;3.67;;
77522;SDS011;66637;-29.628;-49.938;2023-05-03T11:07:26;16.52;;;3.63;;
77522;SDS011;66637;-29.628;-49.938;2023-05-03T11:09:56;12.93;;;2.92;;
77522;SDS011;66637;-29.628;-49.938;2023-05-03T11:12:28;11.88;;;4.03;;
77522;SDS011;66637;-29.628;-49.938;2023-05-03T11:14:59;21.90;;;4.63;;
77522;SDS011;66637;-29.628;-49.938;2023-05-03T11:17:31;20.38;;;4.70;;
77522;SDS011;66637;-29.628;-49.938;2023-05-03T11:20:01;12.82;;;2.78;;
77522;SDS011;66637;-29.628;-49.938;2023-05-03T11:22:33;15.38;;;2.90;;
77522;SDS011;66637;-29.628;-49.938;2023-05-03T11:25:06;36.85;;;4.65;;
77522;SDS011;66637;-29.628;-49.938;2023-05-03T11:27:39;21.83;;;4.00;;
77522;SDS011;66637;-29.628;-49.938;2023-05-03T11:30:17;25.25;;;4.43;;
77522;SDS011;66637;-29.628;-49.938;2023-05-03T11:32:48;27.48;;;5.70;;
77522;SDS011;66637;-29.628;-49.938;2023-05-03T11:35:19;22.85;;;4.18;;
77522;SDS011;66637;-29.628;-49.938;2023-05-03T11:37:52;17.23;;;3.85;;
77522;SDS011;66637;-29.628;-49.938;2023-05-03T11:40:23;14.30;;;3.15;;
77522;SDS011;66637;-29.628;-49.938;2023-05-03T11:42:56;22.15;;;3.95;;
77522;SDS011;66637;-29.628;-49.938;2023-05-03T11:45:30;20.88;;;4.20;;
77522;SDS011;66637;-29.628;-49.938;2023-05-03T11:48:03;17.73;;;3.88;;
77522;SDS011;66637;-29.628;-49.938;2023-05-03T11:53:15;15.95;;;2.97;;
77522;SDS011;66637;-29.628;-49.938;2023-05-03T11:55:48;38.20;;;6.05;;
77522;SDS011;66637;-29.628;-49.938;2023-05-03T11:58:24;39.15;;;7.50;;
77522;SDS011;66637;-29.628;-49.938;2023-05-03T12:00:55;19.35;;;4.65;;
77522;SDS011;66637;-29.628;-49.938;2023-05-03T12:03:27;29.98;;;6.20;;
77522;SDS011;66637;-29.628;-49.938;2023-05-03T12:06:00;12.13;;;3.38;;
77522;SDS011;66637;-29.628;-49.938;2023-05-03T12:08:33;30.17;;;4.00;;
77522;SDS011;66637;-29.628;-49.938;2023-05-03T12:11:11;16.48;;;3.97;;
77522;SDS011;66637;-29.628;-49.938;2023-05-03T12:13:45;13.52;;;3.83;;
77522;SDS011;66637;-29.628;-49.938;2023-05-03T12:16:24;17.95;;;4.35;;
77522;SDS011;66637;-29.628;-49.938;2023-05-03T12:18:57;19.60;;;5.43;;
77522;SDS011;66637;-29.628;-49.938;2023-05-03T12:21:45;19.25;;;4.68;;
77522;SDS011;66637;-29.628;-49.938;2023-05-03T12:24:37;20.30;;;3.42;;
77522;SDS011;66637;-29.628;-49.938;2023-05-03T12:27:12;23.02;;;5.70;;
77522;SDS011;66637;-29.628;-49.938;2023-05-03T12:29:46;23.65;;;4.45;;
77522;SDS011;66637;-29.628;-49.938;2023-05-03T12:32:18;14.98;;;4.78;;
77522;SDS011;66637;-29.628;-49.938;2023-05-03T12:34:54;29.80;;;6.35;;
77522;SDS011;66637;-29.628;-49.938;2023-05-03T12:37:29;35.33;;;5.75;;
77522;SDS011;66637;-29.628;-49.938;2023-05-03T12:40:01;25.40;;;5.78;;
77522;SDS011;66637;-29.628;-49.938;2023-05-03T12:42:55;24.88;;;5.70;;
77522;SDS011;66637;-29.628;-49.938;2023-05-03T12:45:27;17.00;;;4.38;;
77522;SDS011;66637;-29.628;-49.938;2023-05-03T12:48:01;19.65;;;5.20;;
77522;SDS011;66637;-29.628;-49.938;2023-05-03T12:50:33;30.40;;;5.15;;
77522;SDS011;66637;-29.628;-49.938;2023-05-03T12:53:06;38.03;;;4.97;;
77522;SDS011;66637;-29.628;-49.938;2023-05-03T12:55:37;36.30;;;6.45;;
77522;SDS011;66637;-29.628;-49.938;2023-05-03T12:58:13;15.40;;;3.08;;
77522;SDS011;66637;-29.628;-49.938;2023-05-03T13:00:47;26.13;;;3.75;;
77522;SDS011;66637;-29.628;-49.938;2023-05-03T13:03:25;15.57;;;4.53;;
77522;SDS011;66637;-29.628;-49.938;2023-05-03T13:06:00;23.77;;;5.13;;
77522;SDS011;66637;-29.628;-49.938;2023-05-03T13:08:41;38.90;;;4.88;;
77522;SDS011;66637;-29.628;-49.938;2023-05-03T13:11:17;22.92;;;4.78;;
77522;SDS011;66637;-29.628;-49.938;2023-05-03T13:13:50;33.67;;;5.85;;
77522;SDS011;66637;-29.628;-49.938;2023-05-03T13:16:23;23.17;;;5.43;;
77522;SDS011;66637;-29.628;-49.938;2023-05-03T13:18:55;26.40;;;6.22;;
77522;SDS011;66637;-29.628;-49.938;2023-05-03T13:21:28;22.08;;;3.35;;
77522;SDS011;66637;-29.628;-49.938;2023-05-03T13:24:01;25.65;;;3.85;;
77522;SDS011;66637;-29.628;-49.938;2023-05-03T13:26:32;35.38;;;6.15;;
77522;SDS011;66637;-29.628;-49.938;2023-05-03T13:29:03;37.95;;;5.80;;
77522;SDS011;66637;-29.628;-49.938;2023-05-03T13:31:35;39.28;;;5.07;;
77522;SDS011;66637;-29.628;-49.938;2023-05-03T13:34:07;29.42;;;5.35;;
77522;SDS011;66637;-29.628;-49.938;2023-05-03T13:36:41;47.15;;;6.72;;
77522;SDS011;66637;-29.628;-49.938;2023-05-03T13:39:11;32.72;;;3.38;;
77522;SDS011;66637;-29.628;-49.938;2023-05-03T13:41:44;43.15;;;5.72;;
77522;SDS011;66637;-29.628;-49.938;2023-05-03T13:44:15;22.60;;;3.05;;
77522;SDS011;66637;-29.628;-49.938;2023-05-03T13:46:50;43.25;;;5.43;;
77522;SDS011;66637;-29.628;-49.938;2023-05-03T13:49:22;38.42;;;5.10;;
77522;SDS011;66637;-29.628;-49.938;2023-05-03T13:51:55;37.50;;;4.88;;
77522;SDS011;66637;-29.628;-49.938;2023-05-03T13:54:26;36.15;;;4.45;;
77522;SDS011;66637;-29.628;-49.938;2023-05-03T13:56:59;66.20;;;9.07;;
77522;SDS011;66637;-29.628;-49.938;2023-05-03T13:59:29;56.63;;;6.20;;
77522;SDS011;66637;-29.628;-49.938;2023-05-03T14:02:01;73.47;;;9.88;;
77522;SDS011;66637;-29.628;-49.938;2023-05-03T14:04:31;59.58;;;6.70;;
77522;SDS011;66637;-29.628;-49.938;2023-05-03T14:07:03;42.88;;;6.00;;
77522;SDS011;66637;-29.628;-49.938;2023-05-03T14:09:34;46.20;;;6.93;;
77522;SDS011;66637;-29.628;-49.938;2023-05-03T14:12:09;44.67;;;5.63;;
77522;SDS011;66637;-29.628;-49.938;2023-05-03T14:14:39;31.52;;;4.20;;
77522;SDS011;66637;-29.628;-49.938;2023-05-03T14:17:14;64.40;;;9.30;;
77522;SDS011;66637;-29.628;-49.938;2023-05-03T14:19:46;29.33;;;4.78;;
77522;SDS011;66637;-29.628;-49.938;2023-05-03T14:22:19;56.20;;;7.80;;
77522;SDS011;66637;-29.628;-49.938;2023-05-03T14:24:51;62.50;;;7.43;;
77522;SDS011;66637;-29.628;-49.938;2023-05-03T14:27:22;28.73;;;3.83;;
77522;SDS011;66637;-29.628;-49.938;2023-05-03T14:29:55;35.22;;;5.00;;
77522;SDS011;66637;-29.628;-49.938;2023-05-03T14:32:26;39.15;;;5.82;;
77522;SDS011;66637;-29.628;-49.938;2023-05-03T14:34:57;40.45;;;5.95;;
77522;SDS011;66637;-29.628;-49.938;2023-05-03T14:37:29;37.83;;;4.57;;
77522;SDS011;66637;-29.628;-49.938;2023-05-03T14:40:01;42.72;;;6.13;;
77522;SDS011;66637;-29.628;-49.938;2023-05-03T14:42:35;39.72;;;4.72;;
77522;SDS011;66637;-29.628;-49.938;2023-05-03T14:45:08;34.88;;;5.10;;
77522;SDS011;66637;-29.628;-49.938;2023-05-03T14:47:42;41.53;;;6.97;;
77522;SDS011;66637;-29.628;-49.938;2023-05-03T14:50:15;40.28;;;6.45;;
77522;SDS011;66637;-29.628;-49.938;2023-05-03T14:52:47;31.02;;;4.65;;
77522;SDS011;66637;-29.628;-49.938;2023-05-03T14:55:18;21.33;;;4.80;;
77522;SDS011;66637;-29.628;-49.938;2023-05-03T14:57:49;51.00;;;5.97;;